Time;durP1;ratioP1;P1;durP2;ratioP2;P2;SDS_P1;SDS_P2;PMS_P1;PMS_P2;Temp;Humidity;BMP_temperature;BMP_pressure;BME280_temperature;BME280_humidity;BME280_pressure;Samples;Min_cycle;Max_cycle;Signal;HPM_P1;HPM_P2
2022/02/21 13:17:11;;;;;;;9.88;2.20;;;4.80;99.90;;;;;;6207922;22;1164572;-73
2022/02/21 13:19:38;;;;;;;9.02;2.30;;;4.90;99.90;;;;;;6164343;23;20021;-74
2022/02/21 13:22:12;;;;;;;4.38;2.20;;;4.90;99.90;;;;;;6156160;23;20002;-75
2022/02/21 13:24:41;;;;;;;4.80;2.35;;;4.90;99.90;;;;;;6154137;23;20039;-75
2022/02/21 13:27:20;;;;;;;7.60;2.95;;;5.00;99.90;;;;;;6155136;23;20466;-74
2022/02/21 13:29:47;;;;;;;8.30;2.63;;;5.00;99.90;;;;;;6153977;23;20016;-73
2022/02/21 13:35:16;;;;;;;8.05;2.58;;;5.10;99.90;;;;;;5089297;28;20710;-73
2022/02/21 13:37:44;;;;;;;6.65;3.10;;;5.10;99.90;;;;;;5088614;28;20389;-73
2022/02/21 13:43:09;;;;;;;5.30;2.40;;;5.20;99.90;;;;;;5110356;27;20420;-73
2022/02/21 13:45:37;;;;;;;7.45;3.00;;;5.30;99.90;;;;;;5076960;28;20027;-72
2022/02/21 13:48:07;;;;;;;9.30;3.33;;;5.40;99.90;;;;;;5122511;28;20056;-72
2022/02/21 13:50:48;;;;;;;8.40;2.88;;;5.40;99.90;;;;;;5093494;28;20025;-73
2022/02/21 13:53:34;;;;;;;10.65;3.17;;;5.50;99.90;;;;;;5093878;28;20025;-73
2022/02/21 13:56:04;;;;;;;11.63;3.75;;;5.50;99.90;;;;;;5072183;28;20077;-73
2022/02/21 13:58:39;;;;;;;9.57;3.72;;;5.50;99.90;;;;;;5089048;28;20482;-74
2022/02/21 14:01:16;;;;;;;9.35;4.00;;;5.50;99.90;;;;;;5089360;28;20024;-72
2022/02/21 14:03:49;;;;;;;7.80;4.47;;;5.50;99.90;;;;;;5088780;28;20505;-72
2022/02/21 14:06:17;;;;;;;9.38;4.93;;;5.60;99.90;;;;;;5089609;28;20016;-73
2022/02/21 14:08:52;;;;;;;11.85;5.15;;;5.50;99.90;;;;;;5088257;28;20499;-74
2022/02/21 14:11:22;;;;;;;8.43;4.55;;;5.50;99.90;;;;;;5103911;28;20024;-74
2022/02/21 14:13:48;;;;;;;10.65;5.10;;;5.60;99.90;;;;;;5110502;28;20026;-73
2022/02/21 14:16:15;;;;;;;11.48;5.15;;;5.60;99.90;;;;;;5090347;28;20025;-72
2022/02/21 14:18:41;;;;;;;17.20;6.30;;;5.60;99.90;;;;;;5089765;28;20481;-73
2022/02/21 14:21:08;;;;;;;17.48;6.40;;;5.60;99.90;;;;;;5088281;28;20036;-73
2022/02/21 14:23:34;;;;;;;15.07;5.97;;;5.70;99.90;;;;;;5094444;28;20065;-74
2022/02/21 14:26:00;;;;;;;14.43;7.70;;;5.70;99.90;;;;;;5071356;28;20028;-73
2022/02/21 14:28:26;;;;;;;16.38;8.02;;;5.70;99.90;;;;;;5073936;28;20371;-73
2022/02/21 14:30:52;;;;;;;18.65;7.90;;;5.70;99.90;;;;;;5095242;28;20043;-73
2022/02/21 14:33:17;;;;;;;16.35;8.90;;;5.80;99.90;;;;;;5089718;28;20028;-74
2022/02/21 14:35:43;;;;;;;21.98;10.30;;;5.80;99.90;;;;;;5072737;28;20028;-73
2022/02/21 14:38:11;;;;;;;15.85;8.93;;;5.80;99.90;;;;;;5105602;28;20023;-73
2022/02/21 14:40:38;;;;;;;13.25;7.25;;;5.90;99.90;;;;;;5104034;28;20031;-73
2022/02/21 14:43:04;;;;;;;14.93;6.85;;;6.00;99.90;;;;;;5087498;28;20106;-74
2022/02/21 14:45:30;;;;;;;14.05;6.65;;;6.00;99.90;;;;;;5091743;28;20031;-73
2022/02/21 14:47:55;;;;;;;22.63;7.32;;;6.10;99.90;;;;;;5096362;28;20020;-73
2022/02/21 14:50:21;;;;;;;15.05;6.47;;;6.10;99.90;;;;;;5089005;28;20025;-73
2022/02/21 14:52:47;;;;;;;16.75;6.75;;;6.10;99.90;;;;;;5065085;28;20024;-74
2022/02/21 14:55:14;;;;;;;18.20;5.68;;;6.20;99.90;;;;;;5075739;28;20533;-74
2022/02/21 14:57:40;;;;;;;16.00;5.82;;;6.30;99.90;;;;;;5090810;28;20032;-73
2022/02/21 15:00:08;;;;;;;18.67;6.10;;;6.30;99.90;;;;;;5074862;28;20526;-73
2022/02/21 15:02:34;;;;;;;17.65;5.13;;;6.30;99.90;;;;;;5068100;28;20066;-74
2022/02/21 15:05:00;;;;;;;18.17;4.50;;;6.30;99.90;;;;;;5074605;28;20541;-75
2022/02/21 15:07:25;;;;;;;18.73;4.70;;;6.30;99.90;;;;;;5079899;28;20127;-75
2022/02/21 15:09:51;;;;;;;13.43;4.15;;;6.30;99.90;;;;;;5073913;28;20401;-75
2022/02/21 15:12:16;;;;;;;8.93;4.07;;;6.30;99.90;;;;;;5075511;28;20029;-74
2022/02/21 15:14:42;;;;;;;16.80;4.13;;;6.30;99.90;;;;;;5073961;28;20496;-75
2022/02/21 15:17:08;;;;;;;18.35;4.22;;;6.30;99.90;;;;;;5082122;28;20028;-74
2022/02/21 15:19:34;;;;;;;13.52;3.95;;;6.40;99.90;;;;;;5073855;28;20040;-72
2022/02/21 15:21:59;;;;;;;9.90;3.13;;;6.40;99.90;;;;;;5066546;28;20536;-73
2022/02/21 15:24:25;;;;;;;18.02;3.95;;;6.50;99.90;;;;;;5080618;28;20024;-73
2022/02/21 15:26:50;;;;;;;19.27;4.13;;;6.50;99.90;;;;;;5087215;28;20435;-73
2022/02/21 15:29:16;;;;;;;17.40;4.28;;;6.60;99.90;;;;;;5063398;28;20024;-75
2022/02/21 15:31:41;;;;;;;18.63;3.88;;;6.60;99.90;;;;;;5086780;28;20107;-74
2022/02/21 15:34:07;;;;;;;13.75;3.53;;;6.70;99.90;;;;;;5074775;28;20024;-73
2022/02/21 15:36:33;;;;;;;15.02;3.28;;;6.70;99.90;;;;;;5073868;28;20470;-73
2022/02/21 15:39:00;;;;;;;15.80;3.50;;;6.70;99.90;;;;;;5074940;28;20482;-73
2022/02/21 15:41:26;;;;;;;20.63;3.55;;;6.80;99.90;;;;;;5093213;28;20169;-73
2022/02/21 15:43:52;;;;;;;15.35;2.78;;;6.90;99.90;;;;;;5079517;28;20536;-73
2022/02/21 15:46:18;;;;;;;17.00;2.67;;;7.00;99.90;;;;;;5054504;28;20371;-75
2022/02/21 15:48:43;;;;;;;17.38;3.42;;;7.10;99.90;;;;;;5054358;28;20025;-73
2022/02/21 15:51:09;;;;;;;9.90;2.00;;;7.10;99.90;;;;;;5084445;28;20058;-74
2022/02/21 15:53:35;;;;;;;11.32;1.73;;;7.00;99.90;;;;;;5056702;28;20056;-73
2022/02/21 15:56:02;;;;;;;14.43;2.53;;;6.90;99.90;;;;;;5070262;28;20045;-73
2022/02/21 15:58:27;;;;;;;9.82;2.40;;;6.90;99.90;;;;;;5056960;28;20226;-73
2022/02/21 16:00:54;;;;;;;17.45;2.80;;;6.80;99.90;;;;;;5054608;28;20130;-73
2022/02/21 16:03:20;;;;;;;9.13;1.92;;;6.80;99.90;;;;;;5081734;28;20079;-72
2022/02/21 16:05:46;;;;;;;16.38;2.53;;;6.90;99.90;;;;;;5055639;28;20465;-73
2022/02/21 16:08:12;;;;;;;13.10;2.45;;;6.80;99.90;;;;;;5054532;28;20075;-73
2022/02/21 16:10:37;;;;;;;13.95;2.75;;;6.90;99.90;;;;;;5053279;28;20021;-73
2022/02/21 16:13:03;;;;;;;15.15;2.30;;;6.90;99.90;;;;;;5074750;28;20459;-73
2022/02/21 16:15:28;;;;;;;14.88;2.10;;;6.90;99.90;;;;;;5087895;28;20017;-72
2022/02/21 16:17:54;;;;;;;16.17;2.22;;;6.90;99.90;;;;;;5089648;28;20077;-73
2022/02/21 16:20:20;;;;;;;14.00;2.30;;;6.90;99.90;;;;;;5087082;28;20476;-73
2022/02/21 16:22:46;;;;;;;12.40;2.90;;;6.90;99.90;;;;;;5090367;28;20033;-73
2022/02/21 16:25:11;;;;;;;13.82;2.10;;;7.00;99.90;;;;;;5093228;28;20020;-73
2022/02/21 16:27:37;;;;;;;14.25;2.63;;;7.00;99.90;;;;;;5091477;28;20409;-73
2022/02/21 16:30:03;;;;;;;10.18;2.83;;;7.00;99.90;;;;;;5089273;28;20016;-74
2022/02/21 16:32:28;;;;;;;12.95;3.38;;;7.10;99.90;;;;;;5089200;28;20025;-73
2022/02/21 16:34:54;;;;;;;13.10;3.05;;;7.00;99.90;;;;;;5087807;28;20390;-73
2022/02/21 16:37:19;;;;;;;16.92;2.53;;;7.00;99.90;;;;;;5073940;28;20025;-73
2022/02/21 16:39:45;;;;;;;15.57;2.15;;;7.00;99.90;;;;;;5078850;28;20056;-73
2022/02/21 16:42:11;;;;;;;12.30;2.60;;;6.90;99.90;;;;;;5082247;28;20040;-73
2022/02/21 16:44:37;;;;;;;13.32;2.35;;;6.90;99.90;;;;;;5076048;28;20028;-73
2022/02/21 16:47:05;;;;;;;6.65;1.90;;;6.80;99.90;;;;;;5079626;28;20103;-73
2022/02/21 16:49:31;;;;;;;11.70;2.10;;;6.70;99.90;;;;;;5089405;28;20115;-73
2022/02/21 16:51:56;;;;;;;9.52;1.98;;;6.70;99.90;;;;;;5081189;28;20065;-73
2022/02/21 16:54:22;;;;;;;12.77;1.77;;;6.60;99.90;;;;;;5052406;28;20029;-73
2022/02/21 16:56:48;;;;;;;6.63;1.35;;;6.50;99.90;;;;;;5063900;28;20029;-74
2022/02/21 16:59:13;;;;;;;3.55;1.25;;;6.40;99.90;;;;;;5073633;28;20043;-73
2022/02/21 17:01:40;;;;;;;12.13;2.22;;;6.40;99.90;;;;;;5073413;28;20031;-73
2022/02/21 17:04:05;;;;;;;10.07;1.85;;;6.30;99.90;;;;;;5072351;28;20027;-73
2022/02/21 17:06:31;;;;;;;5.68;1.65;;;6.30;99.90;;;;;;5091762;28;20024;-73
2022/02/21 17:08:57;;;;;;;8.52;1.65;;;6.30;99.90;;;;;;5092500;28;20012;-73
2022/02/21 17:11:23;;;;;;;7.90;2.05;;;6.20;99.90;;;;;;5078408;28;20457;-74
2022/02/21 17:13:48;;;;;;;7.50;1.65;;;6.20;99.90;;;;;;5074141;28;20059;-73
2022/02/21 17:16:14;;;;;;;6.50;1.40;;;6.20;99.90;;;;;;5092142;28;20108;-73
2022/02/21 17:18:40;;;;;;;11.55;1.92;;;6.30;99.90;;;;;;5092776;28;20043;-73
2022/02/21 17:21:06;;;;;;;8.43;1.77;;;6.40;99.90;;;;;;5069260;28;20033;-73
2022/02/21 17:23:32;;;;;;;8.57;2.20;;;6.30;99.90;;;;;;5068757;28;20109;-73
2022/02/21 17:25:58;;;;;;;13.80;2.00;;;6.30;99.90;;;;;;5072743;28;20428;-73
2022/02/21 17:28:28;;;;;;;11.07;1.63;;;6.20;99.90;;;;;;5074234;28;20521;-73
2022/02/21 17:30:56;;;;;;;7.85;2.20;;;6.20;99.90;;;;;;5055552;28;20477;-73
2022/02/21 17:33:21;;;;;;;7.53;2.58;;;6.20;99.90;;;;;;5060523;28;20032;-73
2022/02/21 17:35:47;;;;;;;10.68;2.08;;;6.10;99.90;;;;;;5077797;28;20468;-73
2022/02/21 17:38:13;;;;;;;13.88;2.63;;;6.10;99.90;;;;;;5055166;28;20021;-73
2022/02/21 17:40:40;;;;;;;17.30;2.47;;;6.10;99.90;;;;;;5071714;28;20443;-73
2022/02/21 17:43:05;;;;;;;14.13;1.98;;;6.10;99.90;;;;;;5055146;28;20044;-73
2022/02/21 17:45:33;;;;;;;11.60;2.22;;;6.10;99.90;;;;;;5073104;28;20078;-73
2022/02/21 17:47:58;;;;;;;10.27;1.63;;;6.10;99.90;;;;;;5088585;28;20115;-73
2022/02/21 17:50:24;;;;;;;7.35;2.78;;;6.00;99.90;;;;;;5071725;28;20108;-72
2022/02/21 17:52:50;;;;;;;14.60;2.08;;;6.00;99.90;;;;;;5071867;28;20082;-73
2022/02/21 17:55:15;;;;;;;16.92;2.42;;;6.00;99.90;;;;;;5088550;28;20029;-73
2022/02/21 17:57:41;;;;;;;15.18;2.55;;;5.90;99.90;;;;;;5072913;28;20060;-73
2022/02/21 18:00:08;;;;;;;13.63;2.42;;;5.90;99.90;;;;;;5071779;28;20107;-73
2022/02/21 18:02:34;;;;;;;14.07;2.95;;;5.90;99.90;;;;;;5054807;28;20024;-73
2022/02/21 18:05:02;;;;;;;10.55;2.83;;;5.90;99.90;;;;;;5071728;28;20028;-73
2022/02/21 18:07:28;;;;;;;14.60;2.85;;;6.00;99.90;;;;;;5055365;28;20032;-73
2022/02/21 18:09:56;;;;;;;17.90;2.88;;;5.90;99.90;;;;;;5072839;28;20111;-73
2022/02/21 18:12:22;;;;;;;15.05;2.70;;;6.00;99.90;;;;;;5071675;28;20493;-73
2022/02/21 18:14:47;;;;;;;8.93;2.20;;;6.00;99.90;;;;;;5088351;28;20021;-73
2022/02/21 18:17:13;;;;;;;11.85;2.28;;;5.90;99.90;;;;;;5071997;28;20032;-72
2022/02/21 18:19:38;;;;;;;13.90;2.53;;;5.90;99.90;;;;;;5088280;28;20025;-73
2022/02/21 18:22:06;;;;;;;18.42;2.88;;;5.80;99.90;;;;;;5072661;28;20028;-73
2022/02/21 18:24:32;;;;;;;20.13;2.75;;;5.80;99.90;;;;;;5088270;28;20051;-73
2022/02/21 18:26:58;;;;;;;14.20;2.80;;;5.80;99.90;;;;;;5071538;28;20020;-73
2022/02/21 18:29:23;;;;;;;16.48;2.75;;;5.80;99.90;;;;;;5075987;28;20081;-73
2022/02/21 18:31:49;;;;;;;15.13;3.35;;;5.80;99.90;;;;;;5076599;28;20440;-74
2022/02/21 18:34:15;;;;;;;16.38;3.33;;;5.80;99.90;;;;;;5076345;28;20027;-73
2022/02/21 18:36:40;;;;;;;16.17;3.03;;;5.80;99.90;;;;;;5075110;28;20481;-73
2022/02/21 18:39:07;;;;;;;17.33;3.42;;;5.90;99.90;;;;;;5076282;28;20028;-73
2022/02/21 18:41:33;;;;;;;22.05;2.80;;;5.90;99.90;;;;;;5091580;28;20044;-73
2022/02/21 18:43:58;;;;;;;15.82;3.08;;;5.90;99.90;;;;;;5058258;28;20530;-73
2022/02/21 18:46:24;;;;;;;20.67;2.65;;;5.90;99.90;;;;;;5076150;28;20126;-73
2022/02/21 18:48:50;;;;;;;13.80;3.33;;;5.90;99.90;;;;;;5074959;28;20025;-73
2022/02/21 18:51:15;;;;;;;14.65;2.92;;;5.90;99.90;;;;;;5091840;28;20032;-73
2022/02/21 18:53:42;;;;;;;21.27;3.95;;;5.90;99.90;;;;;;5058034;28;20037;-73
2022/02/21 18:56:07;;;;;;;21.00;3.55;;;6.00;99.90;;;;;;5074811;28;20081;-73
2022/02/21 18:58:34;;;;;;;18.02;3.53;;;6.00;99.90;;;;;;5091466;28;20120;-73
2022/02/21 19:01:00;;;;;;;16.30;2.88;;;6.00;99.90;;;;;;5075882;28;20394;-73
2022/02/21 19:03:25;;;;;;;16.65;2.97;;;6.00;99.90;;;;;;5057922;28;20024;-73
2022/02/21 19:05:53;;;;;;;15.77;2.95;;;6.00;99.90;;;;;;5075892;28;20161;-73
2022/02/21 19:08:19;;;;;;;19.70;3.42;;;6.00;99.90;;;;;;5074767;28;20024;-73
2022/02/21 19:10:45;;;;;;;18.67;2.97;;;6.00;99.90;;;;;;5057700;28;20016;-73
2022/02/21 19:13:10;;;;;;;15.27;3.47;;;6.00;99.90;;;;;;5075640;28;20021;-73
2022/02/21 19:15:37;;;;;;;16.83;3.38;;;6.00;99.90;;;;;;5091278;28;20524;-73
2022/02/21 19:18:03;;;;;;;33.03;4.63;;;6.00;99.90;;;;;;5075518;28;20027;-73
2022/02/21 19:20:29;;;;;;;23.27;3.50;;;6.00;99.90;;;;;;5091118;28;20060;-73
2022/02/21 19:22:55;;;;;;;30.92;4.00;;;6.00;99.90;;;;;;5074288;28;20427;-73
2022/02/21 19:25:22;;;;;;;24.83;3.90;;;6.10;99.90;;;;;;5074138;28;20061;-73
2022/02/21 19:27:49;;;;;;;24.33;3.90;;;6.10;99.90;;;;;;5074315;28;20520;-73
2022/02/21 19:30:15;;;;;;;20.85;3.97;;;6.00;99.90;;;;;;5057518;28;20496;-73
2022/02/21 19:32:41;;;;;;;20.30;3.60;;;6.00;99.90;;;;;;5090820;28;20028;-73
2022/02/21 19:35:09;;;;;;;14.82;3.20;;;6.10;99.90;;;;;;5075239;28;20020;-73
2022/02/21 19:37:36;;;;;;;18.63;3.45;;;6.00;99.90;;;;;;5074279;28;20040;-73
2022/02/21 19:40:03;;;;;;;19.55;3.20;;;6.00;99.90;;;;;;5075099;28;20491;-73
2022/02/21 19:42:29;;;;;;;24.00;4.25;;;6.00;99.90;;;;;;5073724;28;20036;-73
2022/02/21 19:44:54;;;;;;;21.52;3.75;;;6.00;99.90;;;;;;5075092;28;20025;-73
2022/02/21 19:47:20;;;;;;;20.00;4.10;;;6.00;99.90;;;;;;5075049;28;20103;-74
2022/02/21 19:49:47;;;;;;;22.88;3.90;;;5.90;99.90;;;;;;5075118;28;20024;-73
2022/02/21 19:52:12;;;;;;;24.83;3.95;;;6.00;99.90;;;;;;5073715;28;20039;-73
2022/02/21 19:54:39;;;;;;;26.85;4.68;;;5.90;99.90;;;;;;5056900;28;20478;-73
2022/02/21 19:57:06;;;;;;;19.00;3.20;;;6.00;99.90;;;;;;5074950;28;20025;-73
2022/02/21 19:59:32;;;;;;;21.05;3.40;;;6.10;99.90;;;;;;5074776;28;20111;-73
2022/02/21 20:01:58;;;;;;;24.58;4.22;;;6.10;99.90;;;;;;5073464;28;20048;-73
2022/02/21 20:04:24;;;;;;;29.85;3.97;;;6.20;99.90;;;;;;5056818;28;20017;-73
2022/02/21 20:06:49;;;;;;;20.50;4.40;;;6.20;99.90;;;;;;5073527;28;20017;-73
2022/02/21 20:09:17;;;;;;;19.10;3.42;;;6.00;99.90;;;;;;5073400;28;20537;-73
2022/02/21 20:11:43;;;;;;;21.20;3.90;;;5.80;99.90;;;;;;5090123;28;20058;-73
2022/02/21 20:14:08;;;;;;;21.67;2.80;;;5.80;99.90;;;;;;5090129;28;20594;-73
2022/02/21 20:16:34;;;;;;;13.00;2.38;;;5.80;99.90;;;;;;5090022;28;20024;-73
2022/02/21 20:18:59;;;;;;;17.42;2.40;;;5.70;99.90;;;;;;5073059;28;20032;-74
2022/02/21 20:21:25;;;;;;;15.00;2.30;;;5.70;99.90;;;;;;5073175;28;20032;-73
2022/02/21 20:23:52;;;;;;;17.85;3.13;;;5.60;99.90;;;;;;5056388;28;20029;-74
2022/02/21 20:26:20;;;;;;;17.75;3.40;;;5.50;99.90;;;;;;5073154;28;20044;-73
2022/02/21 20:28:45;;;;;;;23.83;3.33;;;5.60;99.90;;;;;;5089808;28;20034;-73
2022/02/21 20:31:11;;;;;;;23.23;3.63;;;5.50;99.90;;;;;;5073005;28;20474;-73
2022/02/21 20:33:37;;;;;;;26.52;4.45;;;5.60;99.90;;;;;;5072907;28;20489;-73
2022/02/21 20:36:02;;;;;;;23.92;4.25;;;5.60;99.90;;;;;;5072892;28;20103;-73
2022/02/21 20:38:28;;;;;;;20.38;4.18;;;5.70;99.90;;;;;;5072869;28;20032;-73
2022/02/21 20:40:54;;;;;;;33.58;4.78;;;5.80;99.90;;;;;;5073652;28;20049;-73
2022/02/21 20:43:22;;;;;;;31.35;5.13;;;5.80;99.90;;;;;;5072650;28;20474;-73
2022/02/21 20:45:47;;;;;;;33.15;5.18;;;5.80;99.90;;;;;;5089540;28;20020;-73
2022/02/21 20:48:13;;;;;;;28.85;4.07;;;5.90;99.90;;;;;;5073796;28;20103;-73
2022/02/21 20:50:38;;;;;;;35.67;4.88;;;5.90;99.90;;;;;;5072117;28;20500;-73
2022/02/21 20:53:04;;;;;;;30.10;4.75;;;6.00;99.90;;;;;;5072571;28;20157;-73
2022/02/21 20:55:30;;;;;;;35.40;4.88;;;5.90;99.90;;;;;;5055868;28;20036;-74
2022/02/21 20:57:56;;;;;;;34.33;5.20;;;5.90;99.90;;;;;;5055717;28;20021;-73
2022/02/21 21:00:21;;;;;;;31.52;4.90;;;6.00;99.90;;;;;;5073676;28;20096;-73
2022/02/21 21:02:47;;;;;;;25.80;4.72;;;6.00;99.90;;;;;;5073507;28;20046;-73
2022/02/21 21:05:14;;;;;;;27.00;4.63;;;6.00;99.90;;;;;;5089104;28;20439;-73
2022/02/21 21:07:39;;;;;;;32.33;5.78;;;6.00;99.90;;;;;;5072268;28;20027;-74
2022/02/21 21:10:06;;;;;;;31.70;5.40;;;6.10;99.90;;;;;;5072234;28;20021;-73
2022/02/21 21:12:32;;;;;;;25.30;5.55;;;6.10;99.90;;;;;;5055397;28;20029;-73
2022/02/21 21:14:57;;;;;;;26.23;4.60;;;6.10;99.90;;;;;;5073425;28;20539;-73
2022/02/21 21:17:23;;;;;;;45.78;6.38;;;6.10;99.90;;;;;;5073436;28;20035;-74
2022/02/21 21:19:49;;;;;;;38.50;5.95;;;6.10;99.90;;;;;;5072263;28;20032;-73
2022/02/21 21:22:14;;;;;;;45.70;6.15;;;6.00;99.90;;;;;;5073235;28;20074;-73
2022/02/21 21:24:41;;;;;;;38.83;5.47;;;6.00;99.90;;;;;;5072146;28;20027;-73
2022/02/21 21:27:07;;;;;;;35.30;5.25;;;6.00;99.90;;;;;;5072096;28;20025;-73
2022/02/21 21:29:32;;;;;;;35.08;5.70;;;6.00;99.90;;;;;;5055529;28;20382;-73
2022/02/21 21:31:59;;;;;;;32.03;6.03;;;6.00;99.90;;;;;;5073242;28;20032;-73
2022/02/21 21:34:25;;;;;;;35.22;6.22;;;6.00;99.90;;;;;;5073220;28;20032;-73
2022/02/21 21:36:51;;;;;;;30.42;5.88;;;6.10;99.90;;;;;;5088716;28;20481;-73
2022/02/21 21:39:16;;;;;;;46.22;8.73;;;6.20;99.90;;;;;;5088716;28;20033;-73
2022/02/21 21:41:42;;;;;;;35.22;6.32;;;6.20;99.90;;;;;;5071689;28;20470;-73
2022/02/21 21:44:07;;;;;;;35.35;5.53;;;6.20;99.90;;;;;;5088629;28;20382;-73
2022/02/21 21:46:34;;;;;;;41.63;6.22;;;6.20;99.90;;;;;;5055070;28;20056;-73
2022/02/21 21:48:59;;;;;;;34.58;5.15;;;6.20;99.90;;;;;;5073139;28;20405;-73
2022/02/21 21:51:25;;;;;;;31.50;5.35;;;6.20;99.90;;;;;;5055036;28;20115;-73
2022/02/21 21:53:50;;;;;;;32.13;5.78;;;6.10;99.90;;;;;;5055061;28;20025;-73
2022/02/21 21:56:16;;;;;;;30.33;5.28;;;6.00;99.90;;;;;;5073069;28;20025;-73
2022/02/21 21:58:41;;;;;;;45.25;6.90;;;6.00;99.90;;;;;;5071774;28;20024;-73
2022/02/21 22:01:07;;;;;;;28.98;4.90;;;6.00;99.90;;;;;;5072854;28;20033;-73
2022/02/21 22:03:32;;;;;;;34.97;5.60;;;6.00;99.90;;;;;;5074989;28;20020;-73
2022/02/21 22:05:58;;;;;;;43.05;5.80;;;6.10;99.90;;;;;;5092503;28;20031;-73
2022/02/21 22:08:23;;;;;;;32.28;6.28;;;6.10;99.90;;;;;;5075792;28;20071;-73
2022/02/21 22:10:49;;;;;;;36.10;5.90;;;6.10;99.90;;;;;;5075755;28;20024;-73
2022/02/21 22:13:17;;;;;;;31.15;5.05;;;6.20;99.90;;;;;;5075604;28;20098;-73
2022/02/21 22:15:44;;;;;;;23.52;4.40;;;6.20;99.90;;;;;;5076760;28;20144;-73
2022/02/21 22:18:10;;;;;;;33.70;5.07;;;6.20;99.90;;;;;;5075585;28;20012;-73
2022/02/21 22:20:35;;;;;;;27.42;4.32;;;6.30;99.90;;;;;;5075385;28;20386;-74
2022/02/21 22:23:01;;;;;;;28.40;4.90;;;6.20;99.90;;;;;;5075336;28;20027;-73
2022/02/21 22:25:26;;;;;;;25.02;5.50;;;6.20;99.90;;;;;;5092196;28;20028;-72
2022/02/21 22:27:52;;;;;;;31.65;5.03;;;6.20;99.90;;;;;;5075389;28;20032;-73
2022/02/21 22:30:18;;;;;;;34.90;5.45;;;6.10;99.90;;;;;;5075437;28;20024;-73
2022/02/21 22:32:43;;;;;;;27.83;5.43;;;6.20;99.90;;;;;;5076403;28;20032;-73
2022/02/21 22:35:10;;;;;;;33.53;5.57;;;6.20;99.90;;;;;;5076402;28;20024;-73
2022/02/21 22:37:36;;;;;;;41.13;6.35;;;6.10;99.90;;;;;;5091928;28;20025;-73
2022/02/21 22:40:02;;;;;;;32.63;5.72;;;6.10;99.90;;;;;;5075102;28;20029;-73
2022/02/21 22:42:27;;;;;;;43.72;6.18;;;6.10;99.90;;;;;;5074711;28;20173;-72
2022/02/21 22:44:53;;;;;;;38.47;5.32;;;6.10;99.90;;;;;;5091788;28;20060;-73
2022/02/21 22:47:18;;;;;;;38.92;5.43;;;6.10;99.90;;;;;;5076240;28;20012;-73
2022/02/21 22:49:44;;;;;;;40.17;5.93;;;6.10;99.90;;;;;;5076102;28;20024;-73
2022/02/21 22:52:10;;;;;;;31.40;5.50;;;6.20;99.90;;;;;;5076051;28;20016;-73
2022/02/21 22:54:36;;;;;;;27.08;6.15;;;6.10;99.90;;;;;;5091645;28;20024;-73
2022/02/21 22:57:02;;;;;;;34.80;5.53;;;6.10;99.90;;;;;;5074815;28;20028;-74
2022/02/21 22:59:27;;;;;;;31.83;5.30;;;6.10;99.90;;;;;;5091479;28;20029;-73
2022/02/21 23:01:53;;;;;;;36.85;6.97;;;6.20;99.90;;;;;;5074674;28;20081;-73
2022/02/21 23:04:54;;;;;;;39.33;5.68;;;6.10;99.90;;;;;;5074685;28;20099;-73
2022/02/21 23:09:49;;;;;;;40.45;6.82;;;6.10;99.90;;;;;;5074606;28;20032;-73
2022/02/21 23:12:14;;;;;;;39.85;5.80;;;6.10;99.90;;;;;;5091242;28;20033;-73
2022/02/21 23:14:40;;;;;;;27.60;5.80;;;6.10;99.90;;;;;;5075194;28;20107;-73
2022/02/21 23:17:06;;;;;;;33.75;5.57;;;5.90;99.90;;;;;;5074473;28;20385;-73
2022/02/21 23:19:31;;;;;;;34.90;6.00;;;6.00;99.90;;;;;;5075543;28;20390;-73
2022/02/21 23:21:57;;;;;;;35.92;6.00;;;6.00;99.90;;;;;;5074282;28;20032;-72
2022/02/21 23:24:22;;;;;;;34.70;5.18;;;6.00;99.90;;;;;;5057522;28;20108;-72
2022/02/21 23:26:48;;;;;;;37.60;5.85;;;6.00;99.90;;;;;;5074347;28;20385;-72
2022/02/21 23:29:13;;;;;;;32.20;6.03;;;5.90;99.90;;;;;;5075372;28;20021;-72
2022/02/21 23:31:39;;;;;;;31.42;5.57;;;5.90;99.90;;;;;;5074097;28;20024;-72
2022/02/21 23:34:04;;;;;;;45.85;6.60;;;5.90;99.90;;;;;;5074154;28;20025;-72
2022/02/21 23:36:30;;;;;;;41.67;6.55;;;5.80;99.90;;;;;;5090873;28;20032;-72
2022/02/21 23:38:55;;;;;;;34.13;6.00;;;5.90;99.90;;;;;;5074025;28;20484;-73
2022/02/21 23:41:21;;;;;;;30.90;5.65;;;5.80;99.90;;;;;;5074879;28;20457;-72
2022/02/21 23:43:47;;;;;;;38.08;6.43;;;5.70;99.90;;;;;;5075114;28;20012;-72
2022/02/21 23:46:14;;;;;;;41.65;6.82;;;5.70;99.90;;;;;;5090668;28;20397;-72
2022/02/21 23:48:40;;;;;;;46.38;6.43;;;5.60;99.90;;;;;;5073873;28;20024;-72
2022/02/21 23:51:05;;;;;;;38.10;6.15;;;5.60;99.90;;;;;;5073815;28;20016;-72
2022/02/21 23:53:33;;;;;;;39.90;6.50;;;5.60;99.90;;;;;;5074940;28;20142;-72
2022/02/21 23:55:58;;;;;;;37.83;7.80;;;5.60;99.90;;;;;;5073695;28;20045;-72
2022/02/21 23:58:24;;;;;;;36.40;7.07;;;5.70;99.90;;;;;;5073585;28;20056;-72
